createdAt,value
2023-02-19T00:00:50.173Z,73.50
2023-02-19T00:03:20.018Z,73.64
2023-02-19T00:05:49.923Z,73.95
2023-02-19T00:08:19.878Z,74.13
2023-02-19T00:10:49.713Z,74.08
2023-02-19T00:13:22.466Z,73.95
2023-02-19T00:15:52.340Z,73.92
2023-02-19T00:18:22.251Z,74.03
2023-02-19T00:20:52.378Z,74.08
2023-02-19T00:23:22.392Z,73.86
2023-02-19T00:25:52.320Z,73.84
2023-02-19T00:28:25.638Z,73.72
2023-02-19T00:30:55.554Z,73.64
2023-02-19T00:33:25.405Z,73.64
2023-02-19T00:35:55.285Z,73.54
2023-02-19T00:38:25.139Z,73.65
2023-02-19T00:40:55.140Z,73.42
2023-02-19T00:43:28.680Z,73.20
2023-02-19T00:45:58.583Z,72.93
2023-02-19T00:48:28.478Z,73.08
2023-02-19T00:50:58.352Z,72.99
2023-02-19T00:53:28.222Z,73.06
2023-02-19T00:55:58.079Z,72.92
2023-02-19T00:58:30.563Z,73.25
2023-02-19T01:01:00.768Z,73.17
2023-02-19T01:03:31.777Z,73.39
2023-02-19T01:06:01.696Z,73.40
2023-02-19T01:08:33.000Z,73.94
2023-02-19T01:11:05.267Z,73.48
2023-02-19T01:13:38.278Z,73.74
2023-02-19T01:16:09.160Z,74.22
2023-02-19T01:18:39.649Z,74.35
2023-02-19T01:21:11.518Z,74.16
2023-02-19T01:23:42.732Z,74.43
2023-02-19T01:26:17.045Z,75.10
2023-02-19T01:28:49.768Z,75.64
2023-02-19T01:31:21.957Z,75.33
2023-02-19T01:33:54.814Z,75.28
2023-02-19T01:36:25.150Z,75.69
2023-02-19T01:38:55.210Z,75.49
2023-02-19T01:41:27.757Z,75.23
2023-02-19T01:44:04.467Z,75.25
2023-02-19T01:46:35.360Z,74.58
2023-02-19T01:49:10.210Z,74.20
2023-02-19T01:51:44.881Z,73.54
2023-02-19T01:54:19.280Z,73.33
2023-02-19T01:56:52.733Z,73.33
2023-02-19T01:59:25.668Z,73.19
2023-02-19T02:01:55.647Z,73.00
2023-02-19T02:04:25.730Z,73.21
2023-02-19T02:06:57.788Z,72.90
2023-02-19T02:09:43.837Z,73.32
2023-02-19T02:12:14.230Z,73.79
2023-02-19T02:14:50.415Z,73.88
2023-02-19T02:17:29.417Z,74.32
2023-02-19T02:20:44.595Z,74.28
2023-02-19T02:23:26.806Z,74.53
2023-02-19T02:26:09.965Z,74.12
2023-02-19T02:29:15.340Z,73.40
2023-02-19T02:31:56.954Z,73.12
2023-02-19T02:34:33.486Z,72.77
2023-02-19T02:37:04.079Z,73.13
2023-02-19T02:39:35.473Z,73.05
2023-02-19T02:42:17.929Z,72.67
2023-02-19T02:45:09.228Z,73.02
2023-02-19T02:47:53.058Z,73.15
2023-02-19T02:50:28.727Z,73.17
2023-02-19T02:53:17.339Z,73.54
2023-02-19T02:55:51.950Z,73.68
2023-02-19T02:58:27.402Z,73.74
2023-02-19T03:01:17.949Z,73.83
2023-02-19T03:03:57.473Z,73.98
2023-02-19T03:06:33.095Z,74.35
2023-02-19T03:09:11.987Z,74.37
2023-02-19T03:12:00.701Z,74.34
2023-02-19T03:14:51.033Z,74.53
2023-02-19T03:17:40.249Z,74.55
2023-02-19T03:20:18.746Z,74.69
2023-02-19T03:22:51.234Z,74.68
2023-02-19T03:25:36.980Z,74.42
2023-02-19T03:28:11.502Z,74.57
2023-02-19T03:30:47.616Z,74.46
2023-02-19T03:33:21.477Z,74.45
2023-02-19T03:35:59.892Z,74.36
2023-02-19T03:38:42.285Z,74.55
2023-02-19T03:41:21.629Z,74.62
2023-02-19T03:44:02.890Z,74.53
2023-02-19T03:46:42.754Z,74.42
2023-02-19T03:49:23.874Z,74.54
2023-02-19T03:52:05.236Z,74.92
2023-02-19T03:54:41.462Z,74.98
2023-02-19T03:57:21.653Z,75.03
2023-02-19T03:59:58.673Z,74.85
2023-02-19T04:02:37.853Z,74.81
2023-02-19T04:05:14.297Z,74.78
2023-02-19T04:07:52.817Z,75.30
2023-02-19T04:10:29.157Z,75.69
2023-02-19T04:13:07.308Z,76.20
2023-02-19T04:15:38.356Z,76.45
2023-02-19T04:18:15.419Z,77.15
2023-02-19T04:20:49.075Z,77.36
2023-02-19T04:23:26.737Z,77.75
2023-02-19T04:26:02.598Z,77.76
2023-02-19T04:28:33.124Z,77.32
2023-02-19T04:31:03.857Z,76.94
2023-02-19T04:33:33.859Z,76.61
2023-02-19T04:36:04.103Z,76.33
2023-02-19T04:38:36.596Z,76.14
2023-02-19T04:41:06.681Z,76.72
2023-02-19T04:43:36.543Z,77.12
2023-02-19T04:46:07.081Z,77.81
2023-02-19T04:48:36.989Z,78.69
2023-02-19T04:51:09.579Z,79.32
2023-02-19T04:53:42.814Z,79.66
2023-02-19T04:56:15.452Z,79.68
2023-02-19T04:58:47.005Z,79.93
2023-02-19T05:01:17.163Z,79.66
2023-02-19T05:03:47.445Z,79.89
2023-02-19T05:06:17.653Z,79.88
2023-02-19T05:08:50.087Z,79.99
2023-02-19T05:11:20.150Z,80.28
2023-02-19T05:13:49.987Z,80.58
2023-02-19T05:16:20.462Z,80.44
2023-02-19T05:18:50.486Z,81.11
2023-02-19T05:21:20.374Z,80.66
2023-02-19T05:23:52.771Z,81.18
2023-02-19T05:26:26.824Z,81.00
2023-02-19T05:28:57.384Z,81.42
2023-02-19T05:31:27.356Z,82.07
2023-02-19T05:33:58.038Z,81.53
2023-02-19T05:36:28.377Z,81.42
2023-02-19T05:39:01.188Z,81.64
2023-02-19T05:41:32.963Z,81.53
2023-02-19T05:44:02.913Z,81.30
2023-02-19T05:46:33.572Z,81.29
2023-02-19T05:49:03.445Z,81.20
2023-02-19T05:51:33.318Z,81.16
2023-02-19T05:54:05.966Z,81.03
2023-02-19T05:56:37.833Z,81.26
2023-02-19T05:59:10.191Z,81.17
2023-02-19T06:01:40.035Z,80.98
2023-02-19T06:04:09.963Z,80.92
2023-02-19T06:06:39.999Z,80.92
2023-02-19T06:09:13.390Z,80.91
2023-02-19T06:11:43.731Z,80.69
2023-02-19T06:14:16.243Z,80.63
2023-02-19T06:16:46.092Z,80.36
2023-02-19T06:19:15.970Z,80.16
2023-02-19T06:21:46.684Z,80.20
2023-02-19T06:24:19.201Z,79.63
2023-02-19T06:26:49.279Z,79.74
2023-02-19T06:29:19.944Z,79.83
2023-02-19T06:31:49.856Z,80.28
2023-02-19T06:34:19.767Z,80.67
2023-02-19T06:36:52.079Z,80.55
2023-02-19T06:39:24.506Z,81.02
2023-02-19T06:41:54.423Z,81.08
2023-02-19T06:44:24.264Z,81.04
2023-02-19T06:46:57.430Z,80.91
2023-02-19T06:49:27.273Z,81.00
2023-02-19T06:51:57.121Z,80.59
2023-02-19T06:54:29.612Z,80.35
2023-02-19T06:56:59.887Z,80.27
2023-02-19T06:59:30.203Z,80.34
2023-02-19T07:01:59.997Z,79.73
2023-02-19T07:04:29.917Z,78.89
2023-02-19T07:07:00.322Z,78.64
2023-02-19T07:09:32.947Z,78.77
2023-02-19T07:12:02.806Z,78.36
2023-02-19T07:14:32.867Z,78.07
2023-02-19T07:17:02.762Z,77.53
2023-02-19T07:19:32.583Z,77.37
2023-02-19T07:22:02.408Z,76.99
2023-02-19T07:24:34.830Z,76.87
2023-02-19T07:27:04.764Z,76.64
2023-02-19T07:29:34.611Z,76.30
2023-02-19T07:32:04.773Z,76.24
2023-02-19T07:34:34.664Z,75.88
2023-02-19T07:37:04.515Z,75.75
2023-02-19T07:39:36.990Z,75.95
2023-02-19T07:42:07.078Z,75.81
2023-02-19T07:44:36.965Z,75.48
2023-02-19T07:47:06.970Z,75.58
2023-02-19T07:49:37.107Z,76.08
2023-02-19T07:52:07.379Z,76.38
2023-02-19T07:54:39.835Z,76.58
2023-02-19T07:57:09.681Z,76.90
2023-02-19T07:59:39.543Z,77.20
2023-02-19T08:02:31.583Z,77.36
2023-02-19T08:05:01.461Z,77.61
2023-02-19T08:07:34.369Z,77.75
2023-02-19T08:10:20.171Z,78.15
2023-02-19T08:13:10.894Z,78.27
2023-02-19T08:15:40.714Z,77.58
2023-02-19T08:18:11.338Z,77.61
2023-02-19T08:20:41.535Z,76.97
2023-02-19T08:23:12.360Z,77.12
2023-02-19T08:25:44.928Z,76.42
2023-02-19T08:28:15.717Z,76.00
2023-02-19T08:30:47.564Z,75.56
2023-02-19T08:33:21.451Z,75.29
2023-02-19T08:35:51.373Z,75.04
2023-02-19T08:38:21.201Z,75.02
2023-02-19T08:40:53.704Z,74.43
2023-02-19T08:43:23.580Z,74.39
2023-02-19T08:45:57.104Z,74.04
2023-02-19T08:48:26.958Z,74.04
2023-02-19T08:50:58.255Z,73.82
2023-02-19T08:53:29.400Z,73.25
2023-02-19T08:56:02.508Z,73.30
2023-02-19T08:58:32.916Z,72.94
2023-02-19T09:01:02.938Z,72.86
2023-02-19T09:03:33.025Z,72.76
2023-02-19T09:06:02.880Z,72.44
2023-02-19T09:08:32.742Z,72.67
2023-02-19T09:11:07.742Z,72.49
2023-02-19T09:13:37.570Z,72.41
2023-02-19T09:16:08.378Z,72.01
2023-02-19T09:18:38.553Z,71.99
2023-02-19T09:21:09.732Z,71.72
2023-02-19T09:23:40.280Z,71.82
2023-02-19T09:26:14.121Z,71.69
2023-02-19T09:28:44.234Z,71.58
2023-02-19T09:31:17.081Z,71.57
2023-02-19T09:33:48.095Z,71.35
2023-02-19T09:36:19.627Z,71.11
2023-02-19T09:38:49.542Z,71.13
2023-02-19T09:41:32.651Z,70.91
2023-02-19T09:44:04.991Z,71.22
2023-02-19T09:46:39.931Z,71.24
2023-02-19T09:49:17.642Z,71.08
2023-02-19T09:51:53.084Z,71.16
2023-02-19T09:54:27.625Z,70.96
2023-02-19T09:57:04.682Z,70.69
2023-02-19T09:59:42.771Z,70.49
2023-02-19T10:02:18.825Z,70.57
2023-02-19T10:04:53.615Z,70.23
2023-02-19T10:07:27.702Z,70.02
2023-02-19T10:10:03.450Z,69.79
2023-02-19T10:12:36.028Z,69.78
2023-02-19T10:15:15.046Z,69.69
2023-02-19T10:17:45.055Z,69.88
2023-02-19T10:20:20.107Z,69.62
2023-02-19T10:22:50.108Z,69.31
2023-02-19T10:25:20.306Z,69.51
2023-02-19T10:27:52.883Z,68.87
2023-02-19T10:30:27.657Z,69.61
2023-02-19T10:33:03.763Z,69.68
2023-02-19T10:35:40.604Z,69.54
2023-02-19T10:38:10.929Z,69.84
2023-02-19T10:40:48.917Z,69.39
2023-02-19T10:43:33.051Z,68.74
2023-02-19T10:46:07.546Z,68.51
2023-02-19T10:48:43.624Z,67.68
2023-02-19T10:51:21.852Z,67.55
2023-02-19T10:53:54.148Z,66.71
2023-02-19T10:56:30.073Z,66.16
2023-02-19T10:59:18.858Z,65.80
2023-02-19T11:02:03.698Z,64.83
2023-02-19T11:04:38.167Z,65.09
2023-02-19T11:07:12.367Z,64.14
2023-02-19T11:09:45.654Z,63.78
2023-02-19T11:12:17.538Z,64.44
2023-02-19T11:14:50.071Z,64.00
2023-02-19T11:17:27.331Z,64.29
2023-02-19T11:20:01.101Z,64.05
2023-02-19T11:22:38.673Z,63.95
2023-02-19T11:25:25.895Z,62.92
2023-02-19T11:28:07.422Z,61.91
2023-02-19T11:30:43.162Z,63.01
2023-02-19T11:33:32.588Z,62.94
2023-02-19T11:36:30.450Z,62.24
2023-02-19T11:39:04.920Z,62.17
2023-02-19T11:41:59.722Z,61.27
2023-02-19T11:44:46.356Z,62.44
2023-02-19T11:47:54.315Z,62.33
2023-02-19T11:50:32.217Z,62.17
2023-02-19T11:53:18.723Z,61.97
2023-02-19T11:56:05.413Z,62.01
2023-02-19T11:59:03.030Z,62.72
2023-02-19T12:02:05.127Z,62.77
2023-02-19T12:05:06.451Z,62.28
2023-02-19T12:08:10.527Z,62.38
2023-02-19T12:10:59.952Z,62.28
2023-02-19T12:13:45.134Z,61.76
2023-02-19T12:16:30.504Z,61.55
2023-02-19T12:19:43.332Z,62.30
2023-02-19T12:22:31.968Z,62.05
2023-02-19T12:25:29.310Z,62.33
2023-02-19T12:28:18.549Z,61.84
2023-02-19T12:31:18.351Z,62.00
2023-02-19T12:34:19.728Z,61.60
2023-02-19T12:37:04.039Z,62.14
2023-02-19T12:39:57.519Z,62.46
2023-02-19T12:42:46.314Z,62.09
2023-02-19T12:45:23.978Z,63.15
2023-02-19T12:48:07.599Z,62.68
2023-02-19T12:50:40.217Z,63.74
2023-02-19T12:53:21.922Z,64.74
2023-02-19T12:55:57.143Z,63.97
2023-02-19T12:58:35.159Z,63.81
2023-02-19T13:01:08.531Z,63.30
2023-02-19T13:03:44.572Z,62.11
2023-02-19T13:06:57.590Z,61.57
2023-02-19T13:12:56.368Z,59.84
2023-02-19T13:15:46.429Z,60.06
2023-02-19T13:18:29.405Z,58.67
2023-02-19T13:21:52.614Z,58.98
2023-02-19T13:24:35.924Z,59.08
2023-02-19T13:27:41.681Z,58.87
2023-02-19T13:31:00.756Z,58.66
2023-02-19T13:34:05.429Z,59.10
2023-02-19T13:37:11.353Z,59.23
2023-02-19T13:40:03.289Z,59.61
2023-02-19T13:42:40.305Z,59.33
2023-02-19T13:45:40.539Z,59.84
2023-02-19T13:51:51.130Z,60.93
2023-02-19T13:54:27.971Z,61.02
2023-02-19T13:57:33.592Z,60.77
2023-02-19T14:00:04.054Z,60.60
2023-02-19T14:02:36.971Z,60.84
2023-02-19T14:05:14.358Z,61.12
2023-02-19T14:07:55.534Z,61.77
2023-02-19T14:10:57.769Z,61.63
2023-02-19T14:13:59.279Z,62.26
2023-02-19T14:16:35.107Z,61.84
2023-02-19T14:19:04.976Z,61.99
2023-02-19T14:21:43.459Z,62.51
2023-02-19T14:24:17.233Z,62.71
2023-02-19T14:26:47.651Z,62.79
2023-02-19T14:29:20.272Z,62.83
2023-02-19T14:31:50.355Z,63.21
2023-02-19T14:34:27.055Z,63.08
2023-02-19T14:37:02.710Z,62.95
2023-02-19T14:39:37.826Z,62.54
2023-02-19T14:42:15.349Z,62.25
2023-02-19T14:44:52.959Z,62.08
2023-02-19T14:47:27.287Z,62.07
2023-02-19T14:50:03.981Z,61.33
2023-02-19T14:52:44.445Z,60.58
2023-02-19T14:55:23.713Z,60.83
2023-02-19T14:57:57.896Z,61.63
2023-02-19T15:00:30.808Z,61.64
2023-02-19T15:03:02.698Z,62.21
2023-02-19T15:05:34.953Z,62.48
2023-02-19T15:08:14.228Z,62.15
2023-02-19T15:10:46.289Z,62.88
2023-02-19T15:13:27.739Z,63.00
2023-02-19T15:15:58.675Z,63.35
2023-02-19T15:18:35.728Z,63.84
2023-02-19T15:21:08.378Z,63.98
2023-02-19T15:23:41.863Z,63.95
2023-02-19T15:26:24.259Z,64.09
2023-02-19T15:29:02.187Z,64.58
2023-02-19T15:31:32.252Z,64.33
2023-02-19T15:34:02.254Z,64.43
2023-02-19T15:36:36.868Z,64.57
2023-02-19T15:39:09.441Z,65.08
2023-02-19T15:41:39.632Z,65.01
2023-02-19T15:44:37.276Z,65.17
2023-02-19T15:47:17.240Z,65.31
2023-02-19T15:49:57.224Z,65.60
2023-02-19T15:52:39.120Z,65.55
2023-02-19T15:55:27.794Z,65.24
2023-02-19T15:58:06.152Z,65.37
2023-02-19T16:00:44.399Z,65.36
2023-02-19T16:03:21.687Z,65.57
2023-02-19T16:06:02.516Z,65.24
2023-02-19T16:08:34.500Z,65.13
2023-02-19T16:11:10.726Z,65.04
2023-02-19T16:13:40.828Z,65.01
2023-02-19T16:16:21.510Z,65.11
2023-02-19T16:18:54.507Z,65.44
2023-02-19T16:21:27.407Z,65.98
2023-02-19T16:24:13.835Z,65.80
2023-02-19T16:26:48.467Z,65.84
2023-02-19T16:29:24.304Z,65.86
2023-02-19T16:31:57.745Z,66.14
2023-02-19T16:34:36.472Z,66.17
2023-02-19T16:37:06.659Z,66.28
2023-02-19T16:39:36.724Z,65.93
2023-02-19T16:42:19.362Z,65.83
2023-02-19T16:44:52.152Z,65.72
2023-02-19T16:47:32.820Z,66.51
2023-02-19T16:50:07.597Z,66.39
2023-02-19T16:52:39.313Z,66.37
2023-02-19T16:55:16.146Z,66.49
2023-02-19T16:57:48.857Z,66.42
2023-02-19T17:00:20.878Z,66.49
2023-02-19T17:02:53.855Z,66.39
2023-02-19T17:05:26.473Z,66.29
2023-02-19T17:07:56.604Z,66.10
2023-02-19T17:10:30.676Z,66.06
2023-02-19T17:13:03.296Z,65.87
2023-02-19T17:15:33.435Z,65.87
2023-02-19T17:18:03.468Z,65.91
2023-02-19T17:20:38.325Z,65.99
2023-02-19T17:23:08.430Z,65.71
2023-02-19T17:25:38.401Z,65.80
2023-02-19T17:28:11.156Z,65.89
2023-02-19T17:30:41.252Z,65.90
2023-02-19T17:33:11.336Z,65.56
2023-02-19T17:36:02.761Z,65.74
2023-02-19T17:38:55.204Z,65.99
2023-02-19T17:42:02.065Z,66.13
2023-02-19T17:45:13.223Z,66.17
2023-02-19T17:54:12.202Z,66.30
2023-02-19T17:56:47.809Z,66.68
2023-02-19T17:59:19.298Z,66.85
2023-02-19T18:01:55.234Z,66.59
2023-02-19T18:04:25.312Z,66.64
2023-02-19T18:06:55.967Z,66.48
2023-02-19T18:09:26.106Z,66.63
2023-02-19T18:11:55.980Z,66.36
2023-02-19T18:14:25.892Z,66.31
2023-02-19T18:16:58.349Z,66.14
2023-02-19T18:19:28.561Z,66.17
2023-02-19T18:21:58.475Z,65.88
2023-02-19T18:24:28.361Z,66.04
2023-02-19T18:26:58.427Z,65.87
2023-02-19T18:29:30.128Z,66.08
2023-02-19T18:32:02.680Z,66.31
2023-02-19T18:34:32.671Z,66.36
2023-02-19T18:37:02.562Z,66.01
2023-02-19T18:39:32.469Z,65.98
2023-02-19T18:42:03.000Z,65.97
2023-02-19T18:44:32.855Z,66.08
2023-02-19T18:47:05.441Z,66.08
2023-02-19T18:49:35.315Z,65.83
2023-02-19T18:52:05.334Z,66.32
2023-02-19T18:54:35.675Z,66.05
2023-02-19T18:57:05.620Z,65.80
2023-02-19T18:59:35.519Z,65.91
2023-02-19T19:02:09.437Z,65.85
2023-02-19T19:04:41.463Z,65.98
2023-02-19T19:07:12.418Z,66.06
2023-02-19T19:09:42.331Z,65.72
2023-02-19T19:12:12.207Z,65.79
2023-02-19T19:14:42.289Z,65.96
2023-02-19T19:17:14.838Z,65.81
2023-02-19T19:19:46.161Z,65.95
2023-02-19T19:22:16.680Z,65.77
2023-02-19T19:24:46.640Z,66.24
2023-02-19T19:27:16.558Z,66.33
2023-02-19T19:29:47.441Z,66.35
2023-02-19T19:32:19.946Z,66.53
2023-02-19T19:34:49.922Z,66.63
2023-02-19T19:37:19.852Z,66.76
2023-02-19T19:39:49.708Z,66.40
2023-02-19T19:42:19.565Z,66.45
2023-02-19T19:44:49.447Z,66.48
2023-02-19T19:47:22.376Z,66.58
2023-02-19T19:49:52.460Z,66.33
2023-02-19T19:52:22.467Z,66.43
2023-02-19T19:54:54.263Z,66.43
2023-02-19T19:57:24.350Z,66.44
2023-02-19T19:59:54.240Z,66.65
2023-02-19T20:02:26.847Z,66.53
2023-02-19T20:04:56.842Z,66.84
2023-02-19T20:07:28.466Z,66.69
2023-02-19T20:09:58.384Z,66.53
2023-02-19T20:12:28.256Z,66.63
2023-02-19T20:14:58.224Z,66.55
2023-02-19T20:17:30.774Z,66.54
2023-02-19T20:20:00.798Z,66.63
2023-02-19T20:22:30.693Z,66.36
2023-02-19T20:25:00.593Z,66.65
2023-02-19T20:27:30.554Z,66.84
2023-02-19T20:30:00.455Z,67.66
2023-02-19T20:32:32.897Z,68.62
2023-02-19T20:35:02.845Z,68.90
2023-02-19T20:37:32.810Z,68.97
2023-02-19T20:40:02.804Z,68.98
2023-02-19T20:42:32.776Z,68.80
2023-02-19T20:45:02.622Z,68.87
2023-02-19T20:47:35.114Z,69.08
2023-02-19T20:50:05.020Z,68.92
2023-02-19T20:52:34.885Z,68.90
2023-02-19T20:55:04.765Z,68.72
2023-02-19T20:57:34.759Z,68.39
2023-02-19T21:00:04.658Z,68.77
2023-02-19T21:02:37.378Z,68.94
2023-02-19T21:05:07.740Z,68.61
2023-02-19T21:07:37.611Z,68.39
2023-02-19T21:10:08.032Z,68.80
2023-02-19T21:12:38.053Z,68.70
2023-02-19T21:15:08.872Z,68.72
2023-02-19T21:17:41.301Z,69.14
2023-02-19T21:20:12.098Z,69.17
2023-02-19T21:22:41.971Z,69.26
2023-02-19T21:25:12.056Z,69.16
2023-02-19T21:27:42.050Z,68.95
2023-02-19T21:30:12.436Z,68.94
2023-02-19T21:32:45.018Z,68.95
2023-02-19T21:35:14.823Z,69.01
2023-02-19T21:37:45.994Z,68.93
2023-02-19T21:40:16.628Z,68.63
2023-02-19T21:42:46.528Z,68.89
2023-02-19T21:45:16.451Z,68.75
2023-02-19T21:47:52.116Z,69.50
2023-02-19T21:50:22.562Z,68.90
2023-02-19T21:52:52.722Z,68.81
2023-02-19T21:55:22.608Z,68.74
2023-02-19T21:57:52.538Z,68.63
2023-02-19T22:00:23.005Z,68.48
2023-02-19T22:02:55.455Z,68.45
2023-02-19T22:05:26.650Z,68.47
2023-02-19T22:07:58.299Z,68.50
2023-02-19T22:10:28.383Z,68.19
2023-02-19T22:12:58.207Z,68.37
2023-02-19T22:15:28.036Z,68.22
2023-02-19T22:18:00.518Z,68.03
2023-02-19T22:20:30.472Z,68.31
2023-02-19T22:23:00.339Z,68.07
2023-02-19T22:25:30.281Z,68.11
2023-02-19T22:28:00.331Z,68.17
2023-02-19T22:30:33.196Z,68.20
2023-02-19T22:33:06.544Z,68.45
2023-02-19T22:35:36.497Z,68.08
2023-02-19T22:38:06.466Z,67.86
2023-02-19T22:40:36.416Z,68.07
2023-02-19T22:43:06.415Z,68.32
2023-02-19T22:45:36.464Z,68.14
2023-02-19T22:48:09.733Z,68.19
2023-02-19T22:50:40.405Z,68.35
2023-02-19T22:53:10.206Z,68.41
2023-02-19T22:55:40.071Z,68.28
2023-02-19T22:58:09.939Z,68.48
2023-02-19T23:00:39.846Z,68.51
2023-02-19T23:03:12.261Z,68.65
2023-02-19T23:05:42.093Z,68.62
2023-02-19T23:08:14.340Z,68.96
2023-02-19T23:10:44.234Z,68.79
2023-02-19T23:13:14.153Z,69.19
2023-02-19T23:15:44.020Z,69.35
2023-02-19T23:18:16.470Z,69.46
2023-02-19T23:20:46.363Z,69.42
2023-02-19T23:23:16.259Z,69.40
2023-02-19T23:25:46.185Z,69.66
2023-02-19T23:28:16.134Z,69.77
2023-02-19T23:30:46.046Z,69.92
2023-02-19T23:33:18.632Z,69.96
2023-02-19T23:35:48.514Z,69.78
2023-02-19T23:38:18.452Z,69.73
2023-02-19T23:40:48.345Z,69.92
2023-02-19T23:43:18.265Z,70.07
2023-02-19T23:45:48.256Z,70.06
2023-02-19T23:48:20.791Z,69.93
2023-02-19T23:50:50.711Z,70.04
2023-02-19T23:53:20.691Z,70.46
2023-02-19T23:55:51.676Z,70.32
2023-02-19T23:58:21.854Z,70.42
